Time;durP1;ratioP1;P1;durP2;ratioP2;P2;SDS_P1;SDS_P2;PMS_P1;PMS_P2;Temp;Humidity;BMP_temperature;BMP_pressure;BME280_temperature;BME280_humidity;BME280_pressure;Samples;Min_cycle;Max_cycle;Signal;HPM_P1;HPM_P2
2022/11/14 08:20:03;;;;;;;38.50;16.35;;;;;;;1.70;100.00;98880.91;5109697;27;20407;-81
2022/11/14 08:22:30;;;;;;;43.55;18.42;;;;;;;2.14;100.00;98900.25;5105903;28;20761;-82
2022/11/14 08:24:57;;;;;;;39.25;15.90;;;;;;;2.44;100.00;98907.38;5101448;28;20139;-82
2022/11/14 08:27:24;;;;;;;34.45;16.83;;;;;;;2.79;100.00;98922.06;5108246;28;20048;-82
2022/11/14 08:29:51;;;;;;;37.53;16.15;;;;;;;3.04;100.00;98905.53;5107153;28;20048;-82
2022/11/14 08:32:18;;;;;;;35.25;16.48;;;;;;;3.19;100.00;98915.69;5107107;28;20051;-82
2022/11/14 08:34:45;;;;;;;37.97;16.35;;;;;;;3.26;100.00;98918.63;5103219;28;20043;-82
2022/11/14 08:37:13;;;;;;;35.50;16.88;;;;;;;3.50;100.00;98920.00;5107920;28;20127;-82
2022/11/14 08:39:40;;;;;;;34.35;12.60;;;;;;;3.68;100.00;98914.72;5108000;28;20039;-82
2022/11/14 08:42:06;;;;;;;30.98;12.32;;;;;;;3.73;100.00;98901.66;5106094;28;20048;-82
2022/11/14 08:44:33;;;;;;;26.10;12.73;;;;;;;3.84;100.00;98906.00;5105937;28;20483;-82
2022/11/14 08:47:01;;;;;;;32.40;14.52;;;;;;;4.01;100.00;98921.38;5108273;28;20391;-82
2022/11/14 08:49:28;;;;;;;25.13;11.25;;;;;;;4.16;100.00;98920.88;5104143;28;20578;-82
2022/11/14 08:51:54;;;;;;;40.72;16.45;;;;;;;4.18;100.00;98935.84;5107384;28;20478;-82
2022/11/14 08:54:22;;;;;;;29.02;13.70;;;;;;;4.10;100.00;98908.88;5107560;28;20389;-82
2022/11/14 08:56:49;;;;;;;23.25;11.02;;;;;;;4.08;100.00;98914.41;5107827;28;20127;-83
2022/11/14 08:59:15;;;;;;;19.83;10.13;;;;;;;4.25;100.00;98928.06;5104746;28;20046;-82
2022/11/14 09:01:42;;;;;;;20.65;8.82;;;;;;;4.18;100.00;98924.25;5106566;28;20425;-82
2022/11/14 09:04:09;;;;;;;23.55;8.98;;;;;;;4.35;100.00;98926.16;5102321;28;20558;-82
2022/11/14 09:06:36;;;;;;;18.05;9.50;;;;;;;4.36;100.00;98902.78;5100513;28;20352;-82
2022/11/14 09:09:02;;;;;;;19.48;9.23;;;;;;;4.63;100.00;98927.97;5108801;28;20050;-82
2022/11/14 09:11:30;;;;;;;21.95;9.82;;;;;;;4.51;100.00;98920.09;5104652;28;20043;-82
2022/11/14 09:13:57;;;;;;;16.63;9.10;;;;;;;4.62;100.00;98905.56;5106001;28;20552;-82
2022/11/14 09:16:24;;;;;;;18.83;8.73;;;;;;;4.81;100.00;98927.97;5107482;28;20506;-83
2022/11/14 09:18:51;;;;;;;26.10;8.77;;;;;;;4.97;100.00;98937.03;5093354;28;20503;-83
2022/11/14 09:21:18;;;;;;;13.15;7.28;;;;;;;4.89;100.00;98915.44;5085386;28;20044;-85
2022/11/14 09:23:47;;;;;;;14.57;7.57;;;;;;;5.01;100.00;98923.25;5082228;28;20108;-83
2022/11/14 09:26:14;;;;;;;19.30;8.98;;;;;;;5.04;100.00;98934.56;5086985;28;20044;-84
2022/11/14 09:28:42;;;;;;;15.48;8.02;;;;;;;5.01;100.00;98932.16;5086246;28;20143;-84
2022/11/14 09:31:11;;;;;;;13.88;7.25;;;;;;;5.04;100.00;98939.13;5073906;28;20406;-82
2022/11/14 09:33:38;;;;;;;14.73;7.73;;;;;;;4.94;100.00;98920.34;5071475;28;20044;-83
2022/11/14 09:36:07;;;;;;;15.63;7.03;;;;;;;4.95;100.00;98922.88;5067994;28;20653;-84
2022/11/14 09:38:34;;;;;;;14.57;7.03;;;;;;;5.08;100.00;98951.28;5069557;28;20049;-84
2022/11/14 09:41:13;;;;;;;18.67;8.07;;;;;;;5.04;100.00;98931.88;5065674;28;20060;-84
2022/11/14 09:44:00;;;;;;;16.65;7.70;;;;;;;5.13;100.00;98936.34;5072947;28;20055;-84
2022/11/14 09:46:32;;;;;;;13.32;7.65;;;;;;;5.22;100.00;98939.09;5069392;28;20362;-82
2022/11/14 09:48:58;;;;;;;18.90;7.70;;;;;;;5.22;100.00;98928.31;5070603;28;20139;-81
2022/11/14 09:51:30;;;;;;;17.58;8.75;;;;;;;5.32;100.00;98907.50;5072807;28;20044;-81
2022/11/14 09:54:05;;;;;;;15.85;8.60;;;;;;;5.31;100.00;98903.09;5072046;28;20044;-81
2022/11/14 09:56:31;;;;;;;15.02;8.25;;;;;;;5.28;100.00;98901.59;5069953;28;20503;-81
2022/11/14 09:59:02;;;;;;;16.10;8.30;;;;;;;5.29;100.00;98892.50;5072205;28;22050;-82
2022/11/14 10:01:41;;;;;;;18.77;7.68;;;;;;;5.47;100.00;98919.41;5070219;28;20639;-80
2022/11/14 10:04:20;;;;;;;18.30;8.65;;;;;;;5.51;100.00;98901.06;5073545;28;20179;-82
2022/11/14 10:06:55;;;;;;;16.90;8.45;;;;;;;5.54;100.00;98876.47;5080746;28;20054;-81
2022/11/14 10:09:40;;;;;;;17.45;8.70;;;;;;;5.73;100.00;98864.59;5081401;28;20144;-81
2022/11/14 10:12:14;;;;;;;17.42;8.20;;;;;;;5.90;100.00;98861.97;5073594;28;20509;-81
2022/11/14 10:15:00;;;;;;;13.25;7.57;;;;;;;5.97;100.00;98868.44;5074786;28;20058;-81
2022/11/14 10:17:50;;;;;;;11.82;6.55;;;;;;;6.09;100.00;98855.50;5071430;28;20060;-81
2022/11/14 10:20:24;;;;;;;12.95;7.78;;;;;;;6.20;100.00;98860.59;5067340;28;20392;-81
2022/11/14 10:23:05;;;;;;;13.15;6.68;;;;;;;6.17;100.00;98839.31;5070863;28;20045;-81
2022/11/14 10:25:45;;;;;;;19.38;8.50;;;;;;;6.21;100.00;98840.69;5071751;28;20170;-81
2022/11/14 10:28:28;;;;;;;11.15;5.82;;;;;;;6.38;100.00;98857.75;5068413;28;20066;-81
2022/11/14 10:31:05;;;;;;;11.73;5.97;;;;;;;6.50;100.00;98867.28;5068622;28;20051;-81
2022/11/14 10:33:42;;;;;;;27.15;12.02;;;;;;;6.51;100.00;98847.34;5067012;28;20041;-81
2022/11/14 10:36:20;;;;;;;18.30;9.48;;;;;;;6.58;100.00;98852.06;5072063;28;20049;-81
2022/11/14 10:38:53;;;;;;;14.38;6.70;;;;;;;6.70;100.00;98859.69;5070026;28;20059;-80
2022/11/14 10:41:22;;;;;;;15.82;9.55;;;;;;;6.80;100.00;98874.88;5067061;28;20049;-81
2022/11/14 10:43:51;;;;;;;11.07;6.70;;;;;;;6.72;100.00;98851.41;5063015;28;20050;-81
2022/11/14 10:46:26;;;;;;;9.77;7.32;;;;;;;6.87;100.00;98867.81;5063669;28;20071;-81
2022/11/14 10:48:53;;;;;;;16.00;7.57;;;;;;;6.92;100.00;98862.72;5062476;28;20450;-82
2022/11/14 10:51:27;;;;;;;12.30;7.28;;;;;;;6.83;100.00;98836.72;5071786;28;20501;-81
2022/11/14 10:53:59;;;;;;;11.52;6.95;;;;;;;7.01;100.00;98852.75;5071215;28;20063;-82
2022/11/14 10:56:26;;;;;;;11.57;6.57;;;;;;;7.13;100.00;98850.56;5071145;28;20095;-82
2022/11/14 10:58:52;;;;;;;11.00;6.53;;;;;;;7.28;100.00;98862.38;5068457;28;20066;-82
2022/11/14 11:01:45;;;;;;;9.93;6.00;;;;;;;7.34;100.00;98856.28;5070186;28;20065;-82
2022/11/14 11:04:21;;;;;;;7.63;4.90;;;;;;;7.30;100.00;98845.97;5061755;28;20087;-82
2022/11/14 11:06:48;;;;;;;7.85;5.45;;;;;;;7.43;100.00;98862.50;5065528;28;20125;-82
2022/11/14 11:12:03;;;;;;;9.27;5.45;;;;;;;7.51;100.00;98842.72;5062120;28;20055;-82
2022/11/14 11:14:30;;;;;;;8.02;4.80;;;;;;;7.48;100.00;98827.66;5066614;28;20058;-81
2022/11/14 11:17:19;;;;;;;8.25;5.03;;;;;;;7.63;100.00;98838.63;5062836;28;20393;-82
2022/11/14 11:19:47;;;;;;;9.93;3.92;;;;;;;7.66;100.00;98840.97;5067637;28;20076;-82
2022/11/14 11:22:26;;;;;;;4.88;3.03;;;;;;;7.77;100.00;98840.59;5065148;28;20182;-82
2022/11/14 11:24:53;;;;;;;4.03;2.28;;;;;;;7.95;100.00;98847.66;5063924;28;20047;-82
2022/11/14 11:27:23;;;;;;;4.68;2.60;;;;;;;7.94;100.00;98830.56;5070831;28;20557;-82
2022/11/14 11:30:01;;;;;;;;;;;;;;;8.24;100.00;98835.31;5069529;28;20565;-82
2022/11/14 11:32:29;;;;;;;3.22;2.28;;;;;;;8.26;100.00;98811.59;5069721;28;20124;-82
2022/11/14 11:34:57;;;;;;;4.28;2.35;;;;;;;8.54;100.00;98825.50;5070982;28;20508;-82
2022/11/14 11:37:27;;;;;;;2.70;1.98;;;;;;;8.70;100.00;98824.53;5071026;28;20040;-82
2022/11/14 11:39:56;;;;;;;3.05;1.83;;;;;;;8.79;100.00;98809.06;5069202;28;20094;-81
2022/11/14 11:42:25;;;;;;;3.67;2.80;;;;;;;8.99;100.00;98821.09;5070300;28;20418;-82
2022/11/14 11:44:59;;;;;;;2.05;1.85;;;;;;;9.11;100.00;98813.34;5070266;28;20044;-81
2022/11/14 11:47:29;;;;;;;3.10;2.10;;;;;;;9.29;100.00;98820.28;5067993;28;20404;-82
2022/11/14 11:49:59;;;;;;;3.63;1.90;;;;;;;9.32;100.00;98801.78;5069841;28;20407;-82
2022/11/14 11:52:33;;;;;;;4.28;2.10;;;;;;;9.60;100.00;98822.84;5067761;28;20045;-82
2022/11/14 11:55:05;;;;;;;5.07;2.45;;;;;;;9.61;100.00;98813.69;5057085;28;20052;-82
2022/11/14 11:57:35;;;;;;;2.33;1.88;;;;;;;9.53;100.00;98813.78;5066532;28;20052;-82
2022/11/14 12:00:13;;;;;;;3.40;2.22;;;;;;;9.41;100.00;98794.41;5070581;28;20048;-82
2022/11/14 12:02:43;;;;;;;3.08;1.77;;;;;;;9.39;100.00;98804.59;5070137;28;20506;-82
2022/11/14 12:05:15;;;;;;;2.20;1.60;;;;;;;9.47;100.00;98807.22;5070280;28;20472;-82
2022/11/14 12:07:48;;;;;;;4.40;1.45;;;;;;;9.43;100.00;98797.75;5061657;28;20052;-82
2022/11/14 12:10:20;;;;;;;2.42;1.60;;;;;;;9.30;100.00;98781.28;5068504;28;20048;-82
2022/11/14 12:13:34;;;;;;;2.25;1.40;;;;;;;9.38;100.00;98811.88;5064971;28;20048;-82
2022/11/14 12:16:12;;;;;;;2.22;1.48;;;;;;;9.32;100.00;98784.66;5068045;28;20048;-82
2022/11/14 12:19:04;;;;;;;3.25;1.67;;;;;;;9.31;100.00;98793.84;5069122;28;20062;-82
2022/11/14 12:21:51;;;;;;;2.88;1.88;;;;;;;9.32;100.00;98785.50;5066232;28;20389;-82
2022/11/14 12:25:00;;;;;;;2.17;1.65;;;;;;;9.40;100.00;98806.28;5067503;28;20131;-81
2022/11/14 12:27:48;;;;;;;2.23;1.50;;;;;;;9.45;100.00;98805.72;5057843;28;21133;-82
2022/11/14 12:30:18;;;;;;;3.38;1.92;;;;;;;9.43;100.00;98802.34;5057666;28;20921;-82
2022/11/14 12:32:50;;;;;;;2.13;1.20;;;;;;;9.27;100.00;98797.94;5069027;28;20037;-82
2022/11/14 12:35:21;;;;;;;1.92;1.35;;;;;;;9.42;100.00;98801.50;5067052;28;20098;-82
2022/11/14 12:37:52;;;;;;;1.95;1.35;;;;;;;9.42;100.00;98789.81;5068836;28;20056;-82
2022/11/14 12:40:25;;;;;;;2.25;1.90;;;;;;;9.53;100.00;98792.06;5066878;28;20037;-82
2022/11/14 12:42:52;;;;;;;2.50;1.70;;;;;;;9.70;100.00;98798.16;5054731;28;20066;-80
2022/11/14 12:46:01;;;;;;;2.28;1.38;;;;;;;9.78;100.00;98800.75;5061208;28;20472;-81
2022/11/14 12:48:33;;;;;;;1.73;1.30;;;;;;;9.61;100.00;98780.28;5060284;28;20080;-82
2022/11/14 12:51:01;;;;;;;22.00;7.85;;;;;;;9.61;100.00;98780.28;5068148;28;20056;-82
2022/11/14 12:53:41;;;;;;;7.15;4.28;;;;;;;9.71;100.00;98797.94;5068977;28;20091;-82
2022/11/14 12:56:47;;;;;;;4.25;1.77;;;;;;;9.71;100.00;98802.53;5070198;28;20056;-82
2022/11/14 12:59:37;;;;;;;1.67;1.30;;;;;;;9.88;100.00;98767.88;5072068;28;20048;-83
2022/11/14 13:02:23;;;;;;;1.30;1.20;;;;;;;10.32;100.00;98769.63;5067528;28;20135;-83
2022/11/14 13:05:13;;;;;;;2.08;1.25;;;;;;;10.68;100.00;98771.47;5050978;28;20049;-83
2022/11/14 13:07:51;;;;;;;3.50;1.80;;;;;;;10.88;100.00;98774.34;5053989;28;20049;-82
2022/11/14 13:10:29;;;;;;;3.05;1.80;;;;;;;10.93;100.00;98782.78;5057007;28;20044;-82
2022/11/14 13:21:45;;;;;;;2.05;1.27;;;;;;;11.21;100.00;98778.38;5071841;28;20071;-82
2022/11/14 13:24:14;;;;;;;2.65;1.52;;;;;;;11.23;100.00;98769.00;5070477;28;20056;-84
2022/11/14 13:26:48;;;;;;;1.60;1.00;;;;;;;11.30;100.00;98771.75;5073369;28;20047;-82
2022/11/14 13:29:58;;;;;;;1.20;1.10;;;;;;;11.33;100.00;98777.63;5072449;28;20475;-81
2022/11/14 13:33:04;;;;;;;2.67;1.08;;;;;;;11.20;100.00;98783.00;5052640;28;20049;-82
2022/11/14 13:35:58;;;;;;;1.00;0.95;;;;;;;11.04;100.00;98775.97;5070999;28;20408;-82
2022/11/14 13:39:04;;;;;;;1.38;1.20;;;;;;;10.89;100.00;98770.59;5071570;28;20516;-82
2022/11/14 13:41:52;;;;;;;2.28;1.08;;;;;;;10.68;100.00;98754.34;5071819;28;20103;-82
2022/11/14 13:44:53;;;;;;;1.40;1.00;;;;;;;10.58;100.00;98751.94;5050172;28;20045;-82
2022/11/14 13:47:56;;;;;;;2.20;1.30;;;;;;;10.55;100.00;98760.47;5038525;28;20049;-82
2022/11/14 13:50:28;;;;;;;1.60;1.10;;;;;;;10.40;100.00;98755.97;5052937;28;20049;-82
2022/11/14 13:52:55;;;;;;;2.75;1.30;;;;;;;10.41;100.00;98743.19;5055939;28;20392;-82
2022/11/14 13:55:23;;;;;;;3.33;1.50;;;;;;;10.64;100.00;98764.72;5062326;28;20049;-82
2022/11/14 13:58:06;;;;;;;2.85;1.40;;;;;;;10.70;100.00;98765.84;5072353;28;20139;-82
2022/11/14 14:00:55;;;;;;;1.45;1.13;;;;;;;10.74;100.00;98764.41;5072455;28;20393;-82
2022/11/14 14:03:36;;;;;;;2.50;1.42;;;;;;;10.80;100.00;98772.63;5071301;28;20045;-82
2022/11/14 14:06:21;;;;;;;2.10;1.30;;;;;;;10.81;100.00;98768.03;5064654;28;20084;-81
2022/11/14 14:09:04;;;;;;;2.53;1.17;;;;;;;10.85;100.00;98768.47;5072913;28;20511;-82
2022/11/14 14:11:42;;;;;;;1.90;1.23;;;;;;;10.77;100.00;98758.59;5072675;28;20053;-82
2022/11/14 14:14:27;;;;;;;2.10;1.65;;;;;;;10.85;100.00;98766.59;5063036;28;20528;-82
2022/11/14 14:17:01;;;;;;;2.88;1.67;;;;;;;10.71;100.00;98765.66;5072097;28;20400;-82
2022/11/14 14:19:40;;;;;;;4.13;1.35;;;;;;;10.75;100.00;98769.66;5072328;28;20098;-82
2022/11/14 14:22:11;;;;;;;1.63;1.40;;;;;;;10.64;100.00;98759.31;5071833;28;20135;-82
2022/11/14 14:24:53;;;;;;;1.58;1.30;;;;;;;10.67;100.00;98745.31;5062954;28;20137;-82
2022/11/14 14:27:27;;;;;;;6.88;1.50;;;;;;;10.74;100.00;98737.22;5071203;28;20063;-83
2022/11/14 14:30:03;;;;;;;2.47;1.27;;;;;;;10.84;100.00;98764.94;5071696;28;20048;-83
2022/11/14 14:32:32;;;;;;;2.40;1.52;;;;;;;10.91;100.00;98771.25;5069551;28;20451;-82
2022/11/14 14:34:59;;;;;;;2.55;1.60;;;;;;;10.86;100.00;98762.84;5066262;28;20078;-83
2022/11/14 14:37:27;;;;;;;5.47;1.63;;;;;;;10.79;100.00;98756.50;5072147;28;20384;-83
2022/11/14 14:39:59;;;;;;;1.60;1.30;;;;;;;10.87;100.00;98763.66;5072344;28;20056;-82
2022/11/14 14:42:27;;;;;;;2.08;1.25;;;;;;;10.91;100.00;98773.97;5070643;28;20124;-83
2022/11/14 14:44:55;;;;;;;2.17;1.02;;;;;;;10.76;100.00;98756.91;5065871;28;20055;-83
2022/11/14 14:47:36;;;;;;;4.40;1.33;;;;;;;10.78;100.00;98754.84;5068529;28;20428;-83
2022/11/14 14:50:07;;;;;;;2.55;1.33;;;;;;;10.85;100.00;98774.75;5070981;28;20041;-82
2022/11/14 14:52:36;;;;;;;3.08;1.23;;;;;;;10.83;100.00;98776.84;5070070;28;20391;-82
2022/11/14 14:55:05;;;;;;;2.53;1.30;;;;;;;10.66;100.00;98759.97;5063821;28;20044;-83
2022/11/14 14:57:32;;;;;;;2.80;1.85;;;;;;;10.59;100.00;98762.59;5071475;28;20138;-83
2022/11/14 15:00:00;;;;;;;1.42;1.02;;;;;;;10.65;100.00;98769.16;5071719;28;20083;-83
2022/11/14 15:02:28;;;;;;;2.33;1.52;;;;;;;10.62;100.00;98778.53;5068800;28;20530;-83
2022/11/14 15:04:59;;;;;;;3.97;1.50;;;;;;;10.61;100.00;98776.84;5070191;28;20044;-83
2022/11/14 15:07:28;;;;;;;2.95;1.50;;;;;;;10.53;100.00;98760.66;5071422;28;20087;-83
2022/11/14 15:09:57;;;;;;;2.53;1.42;;;;;;;10.36;100.00;98762.81;5071394;28;20075;-83
2022/11/14 15:12:25;;;;;;;4.15;1.73;;;;;;;10.42;100.00;98775.63;5070940;28;20450;-83
2022/11/14 15:14:54;;;;;;;2.97;1.40;;;;;;;10.33;100.00;98757.75;5069247;28;20478;-83
2022/11/14 15:17:21;;;;;;;3.45;1.75;;;;;;;10.33;100.00;98744.19;5065945;28;20146;-81
2022/11/14 15:19:51;;;;;;;3.67;1.20;;;;;;;10.38;100.00;98774.31;5062040;28;20040;-83
2022/11/14 15:22:24;;;;;;;2.55;2.00;;;;;;;10.43;100.00;98773.72;5062070;28;20059;-83
2022/11/14 15:25:05;;;;;;;3.38;1.27;;;;;;;10.37;100.00;98769.06;5068826;28;20098;-83
2022/11/14 15:27:32;;;;;;;4.88;1.55;;;;;;;10.42;100.00;98777.50;5058417;28;20479;-83
2022/11/14 15:30:01;;;;;;;2.22;1.60;;;;;;;10.42;100.00;98777.50;5067580;28;20052;-83
2022/11/14 15:32:28;;;;;;;3.20;1.43;;;;;;;10.42;100.00;98774.78;5061192;28;20132;-79
2022/11/14 15:35:09;;;;;;;3.97;1.58;;;;;;;10.39;100.00;98777.91;5069026;28;20311;-79
2022/11/14 15:37:37;;;;;;;4.28;1.70;;;;;;;10.45;100.00;98786.09;5066840;28;20055;-79
2022/11/14 15:40:18;;;;;;;3.22;1.90;;;;;;;10.51;100.00;98784.50;5067547;28;20075;-79
2022/11/14 15:42:44;;;;;;;4.30;2.13;;;;;;;10.52;100.00;98786.16;5061248;28;20044;-79
2022/11/14 15:45:21;;;;;;;2.03;1.38;;;;;;;10.54;100.00;98786.00;5070762;28;20059;-79
2022/11/14 15:47:49;;;;;;;2.58;1.77;;;;;;;10.33;100.00;98757.75;5068906;28;20080;-79
2022/11/14 15:50:29;;;;;;;5.38;1.70;;;;;;;10.37;100.00;98758.22;5070766;28;20049;-79
2022/11/14 15:53:00;;;;;;;4.25;1.98;;;;;;;10.33;100.00;98762.31;5068414;28;20041;-79
2022/11/14 15:55:27;;;;;;;6.32;1.98;;;;;;;10.38;100.00;98790.63;5069340;28;20385;-79
2022/11/14 15:57:53;;;;;;;5.65;2.22;;;;;;;10.44;100.00;98795.28;5070210;28;20087;-79
2022/11/14 16:00:20;;;;;;;8.32;2.20;;;;;;;10.41;100.00;98798.38;5070744;28;20040;-79
2022/11/14 16:02:51;;;;;;;2.63;1.80;;;;;;;10.39;100.00;98795.03;5068765;28;20404;-79
2022/11/14 16:05:21;;;;;;;13.13;2.70;;;;;;;10.36;100.00;98805.47;5070946;28;20048;-79
2022/11/14 16:07:47;;;;;;;5.43;1.92;;;;;;;10.23;100.00;98778.94;5069113;28;20609;-79
2022/11/14 16:10:18;;;;;;;4.32;2.25;;;;;;;10.40;100.00;98807.59;5070697;28;20044;-79
2022/11/14 16:12:44;;;;;;;4.57;2.40;;;;;;;10.35;100.00;98799.16;5067268;28;20568;-79
2022/11/14 16:15:11;;;;;;;5.35;2.95;;;;;;;10.33;100.00;98787.66;5067511;28;20480;-79
2022/11/14 16:17:40;;;;;;;8.73;3.45;;;;;;;10.28;100.00;98795.50;5066707;28;20060;-79
2022/11/14 16:20:14;;;;;;;6.53;4.47;;;;;;;10.35;100.00;98810.03;5069623;28;20439;-79
2022/11/14 16:22:41;;;;;;;11.32;5.10;;;;;;;10.25;100.00;98793.16;5066821;28;20051;-79
2022/11/14 16:25:15;;;;;;;5.15;3.17;;;;;;;10.15;100.00;98798.91;5069238;28;20055;-79
2022/11/14 16:27:43;;;;;;;6.53;3.80;;;;;;;9.96;100.00;98784.06;5069682;28;20054;-79
2022/11/14 16:30:11;;;;;;;3.50;2.58;;;;;;;10.08;100.00;98812.41;5061631;28;20040;-79
2022/11/14 16:32:38;;;;;;;5.15;2.45;;;;;;;10.07;100.00;98808.03;5065791;28;20045;-79
2022/11/14 16:35:07;;;;;;;5.50;2.50;;;;;;;10.05;100.00;98820.09;5068918;28;20412;-79
2022/11/14 16:37:33;;;;;;;4.55;2.70;;;;;;;9.92;100.00;98804.47;5061129;28;20056;-79
2022/11/14 16:40:00;;;;;;;3.40;2.28;;;;;;;9.94;100.00;98817.88;5070285;28;20526;-79
2022/11/14 16:42:26;;;;;;;8.88;3.85;;;;;;;9.92;100.00;98824.34;5055131;28;20060;-79
2022/11/14 16:45:00;;;;;;;6.80;2.65;;;;;;;9.79;100.00;98817.91;5070354;28;20422;-79
2022/11/14 16:47:26;;;;;;;4.70;2.50;;;;;;;9.77;100.00;98799.06;5068233;28;20044;-79
2022/11/14 16:49:57;;;;;;;3.17;2.35;;;;;;;9.70;100.00;98809.00;5072433;28;20056;-79
2022/11/14 16:52:24;;;;;;;3.05;2.17;;;;;;;9.82;100.00;98831.09;5079381;28;20131;-79
2022/11/14 16:54:52;;;;;;;5.18;3.05;;;;;;;9.69;100.00;98810.84;5092604;28;20052;-78
2022/11/14 16:57:18;;;;;;;3.58;1.95;;;;;;;9.69;100.00;98815.44;5075058;28;20131;-79
2022/11/14 16:59:45;;;;;;;5.05;2.50;;;;;;;9.78;100.00;98832.50;5063555;28;20590;-79
2022/11/14 17:02:15;;;;;;;2.70;2.10;;;;;;;9.84;100.00;98832.56;5069559;28;20086;-79
2022/11/14 17:04:43;;;;;;;3.30;2.13;;;;;;;9.80;100.00;98823.13;5070740;28;20052;-79
2022/11/14 17:07:09;;;;;;;3.25;2.30;;;;;;;9.76;100.00;98832.69;5067481;28;20097;-79
2022/11/14 17:09:36;;;;;;;3.47;2.13;;;;;;;9.77;100.00;98828.94;5062832;28;20063;-79
2022/11/14 17:12:02;;;;;;;4.43;2.63;;;;;;;9.82;100.00;98837.34;5070993;28;20048;-79
2022/11/14 17:14:29;;;;;;;2.92;1.45;;;;;;;9.80;100.00;98834.00;5071400;28;20103;-79
2022/11/14 17:16:56;;;;;;;3.38;2.38;;;;;;;9.77;100.00;98833.50;5065036;28;20140;-79
2022/11/14 17:19:23;;;;;;;4.18;2.22;;;;;;;9.78;100.00;98833.31;5067684;28;20127;-79
2022/11/14 17:21:50;;;;;;;5.40;2.20;;;;;;;9.68;100.00;98830.91;5070274;28;20041;-79
2022/11/14 17:24:17;;;;;;;2.45;1.60;;;;;;;9.76;100.00;98848.13;5070051;28;20045;-79
2022/11/14 17:26:43;;;;;;;3.88;1.98;;;;;;;9.66;100.00;98832.94;5065931;28;20048;-79
2022/11/14 17:29:11;;;;;;;3.92;2.63;;;;;;;9.74;100.00;98846.44;5061585;28;20419;-79
2022/11/14 17:31:38;;;;;;;3.05;1.88;;;;;;;9.59;100.00;98837.47;5071390;28;20209;-79
2022/11/14 17:34:05;;;;;;;4.90;1.45;;;;;;;9.65;100.00;98852.13;5070395;28;20139;-79
2022/11/14 17:36:33;;;;;;;5.72;2.08;;;;;;;9.52;100.00;98848.19;5068148;28;20045;-79
2022/11/14 17:39:00;;;;;;;4.40;2.00;;;;;;;9.34;100.00;98828.72;5063222;28;20051;-78
2022/11/14 17:41:27;;;;;;;4.07;2.10;;;;;;;9.30;100.00;98835.53;5070339;28;20223;-79
2022/11/14 17:43:57;;;;;;;3.20;1.83;;;;;;;9.33;100.00;98855.03;5070056;28;20055;-79
2022/11/14 17:46:24;;;;;;;3.70;1.90;;;;;;;9.19;100.00;98840.38;5068712;28;20045;-79
2022/11/14 17:48:51;;;;;;;4.43;2.40;;;;;;;9.25;100.00;98852.38;5067337;28;20076;-77
2022/11/14 17:51:18;;;;;;;5.88;2.40;;;;;;;9.23;100.00;98838.16;5070408;28;20260;-79
2022/11/14 17:53:46;;;;;;;3.65;2.47;;;;;;;9.17;100.00;98839.75;5070049;28;20041;-79
2022/11/14 17:56:14;;;;;;;4.00;2.05;;;;;;;9.26;100.00;98858.63;5067753;28;20144;-79
2022/11/14 17:58:41;;;;;;;2.78;1.98;;;;;;;9.08;100.00;98838.13;5070106;28;20495;-79
2022/11/14 18:01:11;;;;;;;4.32;2.42;;;;;;;9.07;100.00;98857.28;5069245;28;20053;-79
2022/11/14 18:03:38;;;;;;;5.28;3.00;;;;;;;9.11;100.00;98861.31;5068041;28;20131;-80
2022/11/14 18:06:06;;;;;;;5.65;2.72;;;;;;;8.94;100.00;98839.78;5070338;28;20214;-79
2022/11/14 18:08:34;;;;;;;6.05;2.33;;;;;;;9.03;100.00;98865.78;5070715;28;20139;-79
2022/11/14 18:11:02;;;;;;;5.95;3.70;;;;;;;9.01;100.00;98862.41;5070341;28;20045;-79
2022/11/14 18:13:28;;;;;;;6.07;3.78;;;;;;;8.98;100.00;98864.66;5067922;28;20067;-79
2022/11/14 18:15:59;;;;;;;5.97;2.38;;;;;;;8.82;100.00;98841.22;5068730;28;20040;-79
2022/11/14 18:18:26;;;;;;;2.78;1.85;;;;;;;8.99;100.00;98842.78;5069850;28;20048;-78
2022/11/14 18:20:53;;;;;;;3.55;2.50;;;;;;;9.11;100.00;98853.16;5070329;28;20045;-79
2022/11/14 18:23:19;;;;;;;3.92;2.10;;;;;;;9.04;100.00;98843.06;5069741;28;20048;-79
2022/11/14 18:25:47;;;;;;;3.95;2.30;;;;;;;9.06;100.00;98856.44;5059594;28;20049;-79
2022/11/14 18:28:15;;;;;;;4.80;2.35;;;;;;;9.08;100.00;98853.53;5070149;28;20079;-79
2022/11/14 18:30:42;;;;;;;5.30;2.22;;;;;;;8.97;100.00;98834.00;5068974;28;20476;-79
2022/11/14 18:33:09;;;;;;;4.57;2.75;;;;;;;9.08;100.00;98853.53;5069556;28;20076;-79
2022/11/14 18:35:35;;;;;;;3.28;2.25;;;;;;;9.06;100.00;98848.28;5059904;28;20044;-79
2022/11/14 18:38:02;;;;;;;4.55;2.85;;;;;;;9.13;100.00;98875.53;5070344;28;20522;-79
2022/11/14 18:40:28;;;;;;;2.97;1.95;;;;;;;8.99;100.00;98859.03;5068865;28;20056;-79
2022/11/14 18:42:55;;;;;;;5.93;2.35;;;;;;;9.20;100.00;98877.34;5069353;28;20056;-79
2022/11/14 18:45:23;;;;;;;5.38;2.40;;;;;;;9.08;100.00;98846.25;5060090;28;20055;-79
2022/11/14 18:47:49;;;;;;;3.15;2.15;;;;;;;9.23;100.00;98859.00;5069198;28;20056;-79
2022/11/14 18:50:16;;;;;;;4.65;1.88;;;;;;;9.22;100.00;98866.31;5069856;28;20057;-79
2022/11/14 18:52:42;;;;;;;3.47;2.05;;;;;;;9.16;100.00;98862.44;5069115;28;20049;-79
2022/11/14 18:55:09;;;;;;;4.78;2.33;;;;;;;9.01;100.00;98837.16;5065180;28;20480;-79
2022/11/14 18:57:36;;;;;;;4.90;2.25;;;;;;;9.15;100.00;98849.94;5070139;28;20527;-79
2022/11/14 19:00:04;;;;;;;4.72;1.95;;;;;;;9.04;100.00;98834.91;5067365;28;20048;-79
2022/11/14 19:02:31;;;;;;;3.03;2.00;;;;;;;9.06;100.00;98847.47;5067697;28;20512;-80
2022/11/14 19:04:58;;;;;;;3.50;2.25;;;;;;;9.02;100.00;98836.97;5062791;28;20044;-79
2022/11/14 19:07:25;;;;;;;2.97;1.98;;;;;;;9.05;100.00;98846.63;5066485;28;20079;-79
2022/11/14 19:09:51;;;;;;;8.40;2.05;;;;;;;9.16;100.00;98848.06;5066839;28;20040;-79
2022/11/14 19:12:20;;;;;;;5.35;2.33;;;;;;;9.12;100.00;98844.88;5068209;28;20037;-80
2022/11/14 19:14:48;;;;;;;6.43;2.40;;;;;;;8.92;100.00;98819.28;5063680;28;20651;-79
2022/11/14 19:17:19;;;;;;;9.55;3.47;;;;;;;8.95;100.00;98824.34;5066924;28;20049;-79
2022/11/14 19:19:48;;;;;;;3.92;2.08;;;;;;;9.00;100.00;98830.06;5069371;28;20095;-79
2022/11/14 19:22:14;;;;;;;4.00;2.17;;;;;;;8.96;100.00;98837.72;5068811;28;20399;-80
2022/11/14 19:24:41;;;;;;;3.80;2.30;;;;;;;9.03;100.00;98860.38;5065096;28;20113;-80
2022/11/14 19:27:08;;;;;;;4.40;2.20;;;;;;;9.11;100.00;98859.47;5067835;28;20549;-80
2022/11/14 19:29:35;;;;;;;4.03;2.28;;;;;;;8.92;100.00;98851.81;5068877;28;20051;-79
2022/11/14 19:32:01;;;;;;;3.30;2.25;;;;;;;8.86;100.00;98840.66;5068813;28;20044;-79
2022/11/14 19:34:28;;;;;;;5.25;3.33;;;;;;;8.91;100.00;98833.88;5058324;28;20048;-80
